Time;durP1;ratioP1;P1;durP2;ratioP2;P2;SDS_P1;SDS_P2;PMS_P1;PMS_P2;Temp;Humidity;BMP_temperature;BMP_pressure;BME280_temperature;BME280_humidity;BME280_pressure;Samples;Min_cycle;Max_cycle;Signal;HPM_P1;HPM_P2
2022/09/29 00:00:34;;;;;;;0.10;0.10;;;9.50;99.90;;;;;;5056058;28;20025;-74
2022/09/29 00:03:00;;;;;;;0.10;0.10;;;9.50;99.90;;;;;;5055693;28;20100;-74
2022/09/29 00:05:26;;;;;;;0.10;0.10;;;9.60;99.90;;;;;;5054250;28;20027;-74
2022/09/29 00:07:52;;;;;;;0.10;0.10;;;9.70;99.90;;;;;;5055644;28;20098;-74
2022/09/29 00:10:18;;;;;;;0.10;0.10;;;9.70;99.90;;;;;;5055601;28;20025;-74
2022/09/29 00:12:44;;;;;;;0.20;0.20;;;9.60;99.90;;;;;;5055452;28;20033;-74
2022/09/29 00:15:10;;;;;;;0.13;0.13;;;9.60;99.90;;;;;;5054161;28;20028;-74
2022/09/29 00:17:36;;;;;;;0.10;0.10;;;9.60;99.90;;;;;;5055516;28;20307;-74
2022/09/29 00:20:03;;;;;;;0.10;0.10;;;9.60;99.90;;;;;;5055465;28;20072;-74
2022/09/29 00:22:29;;;;;;;0.20;0.20;;;9.70;99.90;;;;;;5054393;28;20121;-74
2022/09/29 00:24:54;;;;;;;0.10;0.10;;;9.80;99.90;;;;;;5055151;28;20496;-74
2022/09/29 00:27:20;;;;;;;0.10;0.10;;;9.60;99.90;;;;;;5055043;28;20056;-74
2022/09/29 00:29:46;;;;;;;0.10;0.10;;;9.70;99.90;;;;;;5055339;28;20021;-74
2022/09/29 00:32:12;;;;;;;0.10;0.10;;;9.80;99.90;;;;;;5055187;28;20021;-74
2022/09/29 00:34:38;;;;;;;0.10;0.10;;;9.60;99.90;;;;;;5037154;28;20079;-74
2022/09/29 00:37:04;;;;;;;0.10;0.10;;;9.60;99.90;;;;;;5053824;28;20080;-74
2022/09/29 00:39:30;;;;;;;0.10;0.10;;;9.50;99.90;;;;;;5054100;28;20037;-74
2022/09/29 00:41:56;;;;;;;0.10;0.10;;;9.50;99.90;;;;;;5053692;28;20029;-74
2022/09/29 00:44:22;;;;;;;0.10;0.10;;;9.50;99.90;;;;;;5054759;28;20473;-74
2022/09/29 00:46:54;;;;;;;0.10;0.10;;;9.40;99.90;;;;;;5053581;28;20021;-74
2022/09/29 00:49:31;;;;;;;;;;;9.30;99.90;;;;;;5055265;28;20040;-74
2022/09/29 00:51:57;;;;;;;0.20;0.20;;;9.30;99.90;;;;;;5054813;28;20339;-74
2022/09/29 00:54:27;;;;;;;0.10;0.10;;;9.30;99.90;;;;;;5054669;28;20090;-74
2022/09/29 00:56:55;;;;;;;0.20;0.20;;;9.30;99.90;;;;;;5053351;28;20370;-74
2022/09/29 00:59:31;;;;;;;0.20;0.20;;;9.40;99.90;;;;;;5053916;28;20025;-73
2022/09/29 01:01:58;;;;;;;0.10;0.10;;;9.50;99.90;;;;;;5053266;28;20520;-73
2022/09/29 01:04:25;;;;;;;0.10;0.10;;;9.40;99.90;;;;;;5054321;28;20028;-74
2022/09/29 01:06:54;;;;;;;0.15;0.15;;;9.50;99.90;;;;;;5053249;28;20021;-75
2022/09/29 01:09:25;;;;;;;0.10;0.10;;;9.40;99.90;;;;;;5054567;28;20020;-74
2022/09/29 01:11:53;;;;;;;1.52;1.42;;;9.40;99.90;;;;;;5053343;28;20045;-74
2022/09/29 01:14:21;;;;;;;0.10;0.10;;;9.50;99.90;;;;;;5054399;28;20036;-73
2022/09/29 01:16:47;;;;;;;0.17;0.17;;;9.50;99.90;;;;;;5054145;28;20089;-74
2022/09/29 01:19:28;;;;;;;0.20;0.20;;;9.40;99.90;;;;;;5053161;28;20028;-74
2022/09/29 01:22:16;;;;;;;0.10;0.10;;;9.30;99.90;;;;;;5054314;28;20053;-74
2022/09/29 01:25:07;;;;;;;0.10;0.10;;;9.10;99.90;;;;;;5054231;28;20025;-74
2022/09/29 01:28:10;;;;;;;0.20;0.20;;;9.10;99.90;;;;;;5054144;28;20119;-74
2022/09/29 01:30:48;;;;;;;0.20;0.20;;;9.30;99.90;;;;;;5054146;28;20026;-73
2022/09/29 01:33:38;;;;;;;0.10;0.10;;;9.50;99.90;;;;;;5054013;28;20068;-74
2022/09/29 01:36:31;;;;;;;0.10;0.10;;;9.50;99.90;;;;;;5052824;28;20472;-74
2022/09/29 01:39:26;;;;;;;0.20;0.20;;;9.40;99.90;;;;;;5053995;28;20023;-74
2022/09/29 01:42:16;;;;;;;0.10;0.10;;;9.10;99.90;;;;;;5045309;28;20033;-74
2022/09/29 01:44:51;;;;;;;0.10;0.10;;;9.00;99.90;;;;;;5052478;28;20552;-74
2022/09/29 01:47:23;;;;;;;0.10;0.10;;;9.10;99.90;;;;;;5053804;28;20499;-74
2022/09/29 01:49:58;;;;;;;0.10;0.10;;;9.00;99.90;;;;;;5053806;28;20025;-74
2022/09/29 01:52:28;;;;;;;0.10;0.10;;;8.80;99.90;;;;;;5053595;28;20431;-74
2022/09/29 01:55:02;;;;;;;0.15;0.15;;;8.70;99.90;;;;;;5052312;28;20319;-74
2022/09/29 01:57:42;;;;;;;0.10;0.10;;;8.90;99.90;;;;;;5053728;28;20029;-74
2022/09/29 02:00:11;;;;;;;0.10;0.10;;;8.90;99.90;;;;;;5052004;28;20032;-74
2022/09/29 02:02:49;;;;;;;0.17;0.17;;;8.80;99.90;;;;;;5053740;28;20112;-74
2022/09/29 02:05:26;;;;;;;0.13;0.13;;;8.90;99.90;;;;;;5052045;28;20025;-74
2022/09/29 02:07:55;;;;;;;0.20;0.20;;;8.90;99.90;;;;;;5052210;28;20049;-74
2022/09/29 02:10:32;;;;;;;0.13;0.13;;;9.00;99.90;;;;;;5052479;28;20075;-74
2022/09/29 02:13:02;;;;;;;0.70;0.22;;;9.00;99.90;;;;;;5053243;28;20017;-74
2022/09/29 02:15:32;;;;;;;0.10;0.10;;;9.00;99.90;;;;;;5051928;28;20037;-74
2022/09/29 02:18:04;;;;;;;0.10;0.10;;;9.00;99.90;;;;;;5052081;28;20070;-74
2022/09/29 02:20:30;;;;;;;0.20;0.20;;;9.00;99.90;;;;;;5053226;28;20104;-74
2022/09/29 02:22:56;;;;;;;0.10;0.10;;;9.10;99.90;;;;;;5053002;28;20105;-74
2022/09/29 02:25:23;;;;;;;0.10;0.10;;;9.00;99.90;;;;;;5052740;28;20071;-74
2022/09/29 02:27:49;;;;;;;0.10;0.10;;;9.00;99.90;;;;;;5052952;28;20507;-74
2022/09/29 02:30:16;;;;;;;0.20;0.20;;;9.00;99.90;;;;;;5052975;28;20063;-73
2022/09/29 02:32:43;;;;;;;0.10;0.10;;;9.10;99.90;;;;;;5052940;28;20086;-74
2022/09/29 02:35:12;;;;;;;0.10;0.10;;;9.10;99.90;;;;;;5052623;28;20032;-74
2022/09/29 02:37:59;;;;;;;0.10;0.10;;;9.00;99.90;;;;;;5051459;28;20025;-74
2022/09/29 02:40:28;;;;;;;0.10;0.10;;;9.10;99.90;;;;;;5052825;28;20025;-74
2022/09/29 02:43:16;;;;;;;0.13;0.13;;;9.00;99.90;;;;;;5052716;28;20037;-74
2022/09/29 02:45:42;;;;;;;0.20;0.20;;;8.80;99.90;;;;;;5052658;28;20070;-74
2022/09/29 02:48:26;;;;;;;0.20;0.20;;;8.80;99.90;;;;;;5051375;28;20021;-74
2022/09/29 02:51:06;;;;;;;0.10;0.10;;;8.80;99.90;;;;;;5051551;28;20481;-74
2022/09/29 02:53:47;;;;;;;0.10;0.10;;;8.90;99.90;;;;;;5052582;28;20473;-74
2022/09/29 02:56:33;;;;;;;0.10;0.10;;;8.80;99.90;;;;;;5051211;28;20392;-74
2022/09/29 02:59:20;;;;;;;0.10;0.10;;;8.80;99.90;;;;;;5050969;28;20503;-74
2022/09/29 03:01:52;;;;;;;0.20;0.20;;;8.80;99.90;;;;;;5052504;28;20448;-74
2022/09/29 03:04:22;;;;;;;0.10;0.10;;;8.90;99.90;;;;;;5052744;28;20060;-74
2022/09/29 03:06:48;;;;;;;0.10;0.10;;;8.90;99.90;;;;;;5052251;28;20025;-74
2022/09/29 03:09:14;;;;;;;0.20;0.20;;;8.90;99.90;;;;;;5034438;28;20025;-74
2022/09/29 03:11:39;;;;;;;0.10;0.10;;;8.90;99.90;;;;;;5052229;28;20021;-74
2022/09/29 03:14:05;;;;;;;0.20;0.20;;;9.00;99.90;;;;;;5052169;28;20033;-74
2022/09/29 03:16:32;;;;;;;0.20;0.20;;;9.00;99.90;;;;;;5052087;28;20029;-74
2022/09/29 03:18:58;;;;;;;0.10;0.10;;;8.80;99.90;;;;;;5034230;28;20439;-74
2022/09/29 03:21:24;;;;;;;0.20;0.20;;;8.70;99.90;;;;;;5051963;28;20089;-74
2022/09/29 03:23:50;;;;;;;0.13;0.13;;;8.80;99.90;;;;;;5052110;28;20167;-74
2022/09/29 03:26:15;;;;;;;0.10;0.10;;;8.80;99.90;;;;;;5051879;28;20496;-74
2022/09/29 03:28:41;;;;;;;0.10;0.10;;;8.90;99.90;;;;;;5052065;28;20024;-74
2022/09/29 03:31:08;;;;;;;0.20;0.20;;;8.90;99.90;;;;;;5052005;28;20025;-73
2022/09/29 03:33:38;;;;;;;0.20;0.20;;;8.80;99.90;;;;;;5050700;28;20671;-74
2022/09/29 03:36:10;;;;;;;0.20;0.20;;;8.70;99.90;;;;;;5051709;28;20021;-74
2022/09/29 03:38:37;;;;;;;0.13;0.13;;;8.80;99.90;;;;;;5051919;28;20025;-74
2022/09/29 03:41:04;;;;;;;0.20;0.20;;;8.80;99.90;;;;;;5051926;28;20104;-74
2022/09/29 03:43:30;;;;;;;0.10;0.10;;;8.80;99.90;;;;;;5051656;28;20036;-74
2022/09/29 03:45:56;;;;;;;0.10;0.10;;;8.80;99.90;;;;;;5050494;28;20047;-74
2022/09/29 03:48:23;;;;;;;0.10;0.10;;;8.80;99.90;;;;;;5050474;28;20392;-74
2022/09/29 03:50:50;;;;;;;0.10;0.10;;;8.80;99.90;;;;;;5051794;28;20025;-74
2022/09/29 03:53:17;;;;;;;0.10;0.10;;;8.80;99.90;;;;;;5051665;28;20395;-74
2022/09/29 03:55:49;;;;;;;1.60;0.88;;;8.80;99.90;;;;;;5050270;28;20108;-74
2022/09/29 03:58:16;;;;;;;0.15;0.15;;;8.60;99.90;;;;;;5051482;28;20040;-74
2022/09/29 04:00:42;;;;;;;0.10;0.10;;;8.40;99.90;;;;;;5051683;28;20101;-74
2022/09/29 04:03:08;;;;;;;0.10;0.10;;;8.30;99.90;;;;;;5051650;28;20441;-74
2022/09/29 04:05:37;;;;;;;0.20;0.20;;;8.40;99.90;;;;;;5051489;28;20021;-74
2022/09/29 04:08:07;;;;;;;0.20;0.20;;;8.50;99.90;;;;;;5051736;28;20021;-74
2022/09/29 04:10:37;;;;;;;0.10;0.10;;;8.70;99.90;;;;;;5051491;28;20468;-74
2022/09/29 04:13:04;;;;;;;0.10;0.10;;;8.80;99.90;;;;;;5051831;28;20025;-74
2022/09/29 04:15:30;;;;;;;0.10;0.10;;;8.70;99.90;;;;;;5051364;28;20507;-73
2022/09/29 04:17:56;;;;;;;0.10;0.10;;;8.60;99.90;;;;;;5051569;28;20025;-74
2022/09/29 04:20:22;;;;;;;0.10;0.10;;;8.50;99.90;;;;;;5051448;28;20032;-73
2022/09/29 04:22:48;;;;;;;0.20;0.20;;;8.50;99.90;;;;;;5051439;28;20025;-74
2022/09/29 04:25:14;;;;;;;0.10;0.10;;;8.60;99.90;;;;;;5051055;28;20160;-73
2022/09/29 04:27:39;;;;;;;0.13;0.13;;;8.60;99.90;;;;;;5051416;28;20652;-74
2022/09/29 04:30:06;;;;;;;0.10;0.10;;;8.60;99.90;;;;;;5051433;28;20473;-74
2022/09/29 04:32:32;;;;;;;0.10;0.10;;;8.60;99.90;;;;;;5051342;28;20507;-74
2022/09/29 04:34:58;;;;;;;0.20;0.20;;;8.70;99.90;;;;;;5052965;28;20028;-74
2022/09/29 04:37:23;;;;;;;0.08;0.08;;;8.80;99.90;;;;;;5055132;28;20510;-74
2022/09/29 04:39:51;;;;;;;0.10;0.10;;;8.70;99.90;;;;;;5054902;28;20473;-74
2022/09/29 04:42:17;;;;;;;0.10;0.10;;;8.80;99.90;;;;;;5054883;28;20051;-74
2022/09/29 04:44:44;;;;;;;0.20;0.20;;;8.90;99.90;;;;;;5054859;28;20060;-74
2022/09/29 04:47:10;;;;;;;0.10;0.10;;;8.80;99.90;;;;;;5054735;28;20094;-74
2022/09/29 04:49:36;;;;;;;0.10;0.10;;;8.70;99.90;;;;;;5054894;28;20021;-74
2022/09/29 04:52:02;;;;;;;0.10;0.10;;;8.70;99.90;;;;;;5054795;28;20028;-74
2022/09/29 04:54:33;;;;;;;0.10;0.10;;;8.60;99.90;;;;;;5036703;28;20025;-74
2022/09/29 04:57:00;;;;;;;0.15;0.15;;;8.60;99.90;;;;;;5054581;28;20481;-74
2022/09/29 04:59:26;;;;;;;0.10;0.10;;;8.50;99.90;;;;;;5054298;28;20381;-74
2022/09/29 05:01:52;;;;;;;0.20;0.20;;;8.60;99.90;;;;;;5054585;28;20048;-74
2022/09/29 05:04:18;;;;;;;0.10;0.10;;;8.60;99.90;;;;;;5054376;28;20496;-74
2022/09/29 05:06:44;;;;;;;0.20;0.20;;;8.60;99.90;;;;;;5054567;28;20096;-74
2022/09/29 05:09:11;;;;;;;0.10;0.10;;;8.60;99.90;;;;;;5054438;28;20029;-74
2022/09/29 05:11:37;;;;;;;0.10;0.10;;;8.60;99.90;;;;;;5053188;28;20362;-74
2022/09/29 05:14:04;;;;;;;0.10;0.10;;;8.60;99.90;;;;;;5054429;28;20116;-77
2022/09/29 05:16:30;;;;;;;0.10;0.10;;;8.60;99.90;;;;;;5054245;28;20025;-74
2022/09/29 05:18:56;;;;;;;0.20;0.20;;;8.70;99.90;;;;;;5053098;28;20472;-74
2022/09/29 05:21:22;;;;;;;0.10;0.10;;;8.90;99.90;;;;;;5053021;28;20036;-74
2022/09/29 05:23:48;;;;;;;0.10;0.10;;;8.80;99.90;;;;;;5049556;28;20384;-74
2022/09/29 05:26:14;;;;;;;0.10;0.10;;;8.70;99.90;;;;;;5040475;28;20036;-74
2022/09/29 05:28:45;;;;;;;0.20;0.20;;;8.80;99.90;;;;;;5037422;28;20788;-73
2022/09/29 05:31:11;;;;;;;0.20;0.20;;;8.80;99.90;;;;;;5039063;28;20028;-74
2022/09/29 05:33:38;;;;;;;0.13;0.13;;;8.80;99.90;;;;;;5040125;28;20424;-73
2022/09/29 05:36:08;;;;;;;0.10;0.10;;;8.90;99.90;;;;;;5037936;28;20868;-74
2022/09/29 05:38:35;;;;;;;0.10;0.10;;;9.00;99.90;;;;;;5040308;28;20144;-74
2022/09/29 05:41:06;;;;;;;0.10;0.10;;;8.90;99.90;;;;;;5039124;28;20033;-74
2022/09/29 05:43:31;;;;;;;0.10;0.10;;;8.90;99.90;;;;;;5037884;28;20047;-74
2022/09/29 05:46:05;;;;;;;0.47;0.47;;;9.10;99.90;;;;;;5039461;28;20033;-73
2022/09/29 05:48:32;;;;;;;2.55;0.95;;;9.20;99.90;;;;;;5038845;28;20086;-74
2022/09/29 05:50:58;;;;;;;3.70;1.98;;;9.20;99.90;;;;;;5037304;28;20117;-74
2022/09/29 05:53:25;;;;;;;0.10;0.10;;;9.10;99.90;;;;;;5039678;28;20025;-74
2022/09/29 05:55:51;;;;;;;0.20;0.20;;;9.00;99.90;;;;;;5039395;28;20029;-74
2022/09/29 05:58:17;;;;;;;0.10;0.10;;;9.10;99.90;;;;;;5037600;28;21693;-74
2022/09/29 06:00:43;;;;;;;0.10;0.10;;;9.10;99.90;;;;;;5037774;28;20029;-73
2022/09/29 06:03:09;;;;;;;0.10;0.10;;;9.20;99.90;;;;;;5038276;28;20039;-74
2022/09/29 06:05:38;;;;;;;0.05;0.05;;;9.30;99.90;;;;;;5038863;28;20033;-74
2022/09/29 06:08:04;;;;;;;1.48;1.45;;;9.30;99.90;;;;;;5039363;28;20644;-74
2022/09/29 06:10:30;;;;;;;0.10;0.10;;;9.40;99.90;;;;;;5038256;28;20033;-74
2022/09/29 06:12:57;;;;;;;0.10;0.10;;;9.50;99.90;;;;;;5039484;28;20056;-74
2022/09/29 06:15:23;;;;;;;0.10;0.10;;;9.50;99.90;;;;;;5038415;28;20031;-74
2022/09/29 06:17:57;;;;;;;0.20;0.20;;;9.60;99.90;;;;;;5036977;28;20040;-74
2022/09/29 06:20:23;;;;;;;0.15;0.15;;;9.50;99.90;;;;;;5038284;28;20512;-74
2022/09/29 06:22:52;;;;;;;0.15;0.15;;;9.50;99.90;;;;;;5037992;28;20809;-74
2022/09/29 06:25:18;;;;;;;0.20;0.20;;;9.50;99.90;;;;;;5036559;28;20377;-73
2022/09/29 06:27:43;;;;;;;0.10;0.10;;;9.20;99.90;;;;;;5083407;22;20613;-88
2022/09/29 06:30:19;;;;;;;0.10;0.10;;;9.20;99.90;;;;;;5055229;28;20020;-86
2022/09/29 06:32:47;;;;;;;0.10;0.10;;;9.40;99.90;;;;;;5054593;28;20923;-86
2022/09/29 06:38:00;;;;;;;0.10;0.10;;;9.50;99.90;;;;;;5079825;28;20093;-87
2022/09/29 06:40:31;;;;;;;0.35;0.35;;;9.60;99.90;;;;;;5063716;28;20032;-87
2022/09/29 06:43:12;;;;;;;0.10;0.10;;;9.60;99.90;;;;;;5064739;28;20055;-87
2022/09/29 06:46:03;;;;;;;0.10;0.10;;;9.60;99.90;;;;;;5083830;28;20184;-86
2022/09/29 06:48:37;;;;;;;0.10;0.10;;;9.50;99.90;;;;;;5064646;28;20040;-85
2022/09/29 06:51:24;;;;;;;0.10;0.10;;;9.50;99.90;;;;;;5064331;28;20252;-86
2022/09/29 06:53:56;;;;;;;0.10;0.10;;;9.70;99.90;;;;;;5065667;28;20024;-86
2022/09/29 06:56:28;;;;;;;0.10;0.10;;;9.70;99.90;;;;;;5062675;28;20036;-85
2022/09/29 06:58:54;;;;;;;;;;;9.70;99.90;;;;;;5065542;28;20164;-85
2022/09/29 07:01:23;;;;;;;0.10;0.10;;;9.70;99.90;;;;;;5063592;28;19912;-85
2022/09/29 07:03:52;;;;;;;0.20;0.20;;;9.80;99.90;;;;;;5064656;28;20036;-84
2022/09/29 07:06:18;;;;;;;0.10;0.10;;;9.70;99.90;;;;;;5064121;28;20047;-85
2022/09/29 07:08:48;;;;;;;0.10;0.10;;;9.70;99.90;;;;;;5064221;28;20059;-86
2022/09/29 07:11:28;;;;;;;0.32;0.32;;;9.70;99.90;;;;;;5082082;28;20035;-85
2022/09/29 07:14:05;;;;;;;0.10;0.10;;;9.70;99.90;;;;;;5064608;28;20027;-86
2022/09/29 07:16:40;;;;;;;0.10;0.10;;;9.70;99.90;;;;;;5064743;28;20071;-86
2022/09/29 07:19:22;;;;;;;0.20;0.20;;;9.80;99.90;;;;;;5066018;28;20044;-87
2022/09/29 07:21:57;;;;;;;0.10;0.10;;;9.80;99.90;;;;;;5065341;28;20051;-87
2022/09/29 07:25:28;;;;;;;0.55;0.35;;;9.90;99.90;;;;;;5066589;28;20393;-86
2022/09/29 07:28:55;;;;;;;;;;;;;;;;;;;;;
2022/09/29 07:33:03;;;;;;;0.57;0.20;;;9.30;99.90;;;;;;5083051;28;20066;-86
2022/09/29 07:39:39;;;;;;;;;;;9.70;99.90;;;;;;5085327;28;20035;-88
2022/09/29 07:42:29;;;;;;;0.10;0.10;;;9.60;99.90;;;;;;5078500;28;19908;-86
2022/09/29 07:45:20;;;;;;;0.15;0.15;;;9.80;99.90;;;;;;5065687;28;20040;-87
2022/09/29 07:47:51;;;;;;;0.20;0.20;;;9.80;99.90;;;;;;5063337;28;20028;-86
2022/09/29 07:50:54;;;;;;;;;;;;;;;;;;;;;
2022/09/29 07:53:42;;;;;;;0.10;0.10;;;9.90;99.90;;;;;;5082890;28;20416;-86
2022/09/29 07:56:43;;;;;;;0.20;0.20;;;10.00;99.90;;;;;;5066543;28;20123;-86
2022/09/29 07:59:28;;;;;;;0.10;0.10;;;10.10;99.90;;;;;;5066405;28;20032;-85
2022/09/29 08:02:01;;;;;;;0.10;0.10;;;10.10;99.90;;;;;;5064560;28;20047;-85
2022/09/29 08:04:46;;;;;;;0.10;0.10;;;10.20;99.90;;;;;;5073286;28;20542;-85
2022/09/29 08:07:48;;;;;;;0.10;0.10;;;10.30;99.90;;;;;;5074108;28;20040;-86
2022/09/29 08:10:23;;;;;;;0.10;0.10;;;10.10;99.90;;;;;;5071625;28;20146;-87
2022/09/29 08:12:59;;;;;;;0.20;0.20;;;10.10;99.90;;;;;;5097168;28;20032;-86
2022/09/29 08:16:08;;;;;;;0.22;0.22;;;10.10;99.90;;;;;;5070727;28;20047;-86
2022/09/29 08:18:45;;;;;;;0.20;0.20;;;10.10;99.90;;;;;;5070103;28;20043;-86
2022/09/29 08:21:24;;;;;;;0.20;0.20;;;10.20;99.90;;;;;;5068655;28;20051;-86
2022/09/29 08:24:03;;;;;;;0.35;0.35;;;10.20;99.90;;;;;;5069873;28;20036;-86
2022/09/29 08:26:56;;;;;;;0.20;0.20;;;10.00;99.90;;;;;;5069895;28;20500;-91
2022/09/29 08:29:29;;;;;;;5.47;5.07;;;10.00;99.90;;;;;;5074133;28;20056;-90
2022/09/29 08:32:18;;;;;;;0.20;0.20;;;10.10;99.90;;;;;;5072664;28;20028;-90
2022/09/29 08:34:53;;;;;;;0.20;0.20;;;10.10;99.90;;;;;;5073556;28;20046;-90
2022/09/29 08:41:40;;;;;;;0.10;0.10;;;10.30;99.90;;;;;;5009714;28;19908;-89
2022/09/29 08:44:45;;;;;;;0.10;0.10;;;10.50;99.90;;;;;;5000898;28;20129;-87
2022/09/29 08:47:31;;;;;;;0.20;0.20;;;10.60;99.90;;;;;;4998346;28;20061;-88
2022/09/29 08:50:13;;;;;;;0.10;0.10;;;10.60;99.90;;;;;;5064202;28;20040;-86
2022/09/29 08:53:17;;;;;;;0.10;0.10;;;10.90;99.90;;;;;;5068528;28;20043;-88
2022/09/29 08:55:46;;;;;;;0.63;0.63;;;11.10;99.90;;;;;;5063357;28;20035;-86
2022/09/29 08:58:18;;;;;;;0.10;0.10;;;11.30;99.90;;;;;;5063197;28;20028;-86
2022/09/29 09:01:29;;;;;;;0.10;0.10;;;11.30;99.90;;;;;;5064560;28;20027;-86
2022/09/29 09:03:58;;;;;;;0.10;0.10;;;11.20;99.90;;;;;;5080466;28;20027;-86
2022/09/29 09:14:30;;;;;;;0.10;0.10;;;11.20;99.90;;;;;;5085477;28;20035;-84
2022/09/29 09:17:51;;;;;;;0.20;0.20;;;11.30;99.90;;;;;;5082693;28;20024;-86
2022/09/29 09:21:09;;;;;;;0.20;0.20;;;11.30;99.90;;;;;;5065793;28;20054;-86
2022/09/29 09:23:44;;;;;;;0.10;0.10;;;11.20;99.90;;;;;;5042311;28;20165;-86
2022/09/29 09:27:03;;;;;;;0.30;0.30;;;11.20;99.90;;;;;;5081964;28;20032;-86
2022/09/29 09:30:29;;;;;;;0.10;0.10;;;11.10;99.90;;;;;;5035053;28;20722;-86
2022/09/29 09:33:27;;;;;;;0.35;0.35;;;11.00;99.90;;;;;;4941381;28;20049;-85
2022/09/29 09:36:07;;;;;;;0.20;0.20;;;10.80;99.90;;;;;;5038881;28;20465;-85
2022/09/29 09:38:49;;;;;;;0.22;0.20;;;10.90;99.90;;;;;;5080618;28;20156;-85
2022/09/29 09:41:20;;;;;;;0.47;0.47;;;10.90;99.90;;;;;;5081509;28;20066;-85
2022/09/29 09:43:59;;;;;;;0.20;0.20;;;10.90;99.90;;;;;;5081722;28;20067;-85
2022/09/29 09:46:43;;;;;;;0.20;0.20;;;10.80;99.90;;;;;;5083038;28;20090;-85
2022/09/29 09:49:36;;;;;;;0.30;0.30;;;10.60;99.90;;;;;;5067921;28;20036;-84
2022/09/29 09:52:30;;;;;;;0.35;0.30;;;10.60;99.90;;;;;;5084187;28;20024;-86
2022/09/29 09:55:37;;;;;;;0.20;0.20;;;10.50;99.90;;;;;;5086154;28;20052;-84
2022/09/29 09:59:04;;;;;;;0.20;0.20;;;10.60;99.90;;;;;;5069673;28;20131;-86
2022/09/29 10:02:16;;;;;;;0.47;0.47;;;10.70;99.90;;;;;;5084897;28;20115;-88
2022/09/29 10:04:45;;;;;;;0.15;0.15;;;10.90;99.90;;;;;;5067616;28;20085;-85
2022/09/29 10:07:14;;;;;;;;;;;10.90;99.90;;;;;;5083238;28;20838;-86
2022/09/29 10:09:40;;;;;;;0.10;0.10;;;10.90;99.90;;;;;;5064431;28;19934;-84
2022/09/29 10:12:25;;;;;;;0.10;0.10;;;11.00;99.90;;;;;;5086888;28;20020;-85
2022/09/29 10:15:38;;;;;;;0.10;0.10;;;11.20;99.90;;;;;;5079837;28;20097;-84
2022/09/29 10:18:51;;;;;;;;;;;;;;;;;;;;;
2022/09/29 10:21:47;;;;;;;0.15;0.15;;;11.20;99.90;;;;;;5077230;28;20067;-86
2022/09/29 10:24:50;;;;;;;0.10;0.10;;;11.10;99.90;;;;;;5085219;28;20074;-84
2022/09/29 10:27:26;;;;;;;0.10;0.10;;;11.20;99.90;;;;;;5075014;28;20040;-85
2022/09/29 10:30:21;;;;;;;0.15;0.15;;;11.30;99.90;;;;;;5104567;28;20327;-86
2022/09/29 10:33:34;;;;;;;0.10;0.10;;;11.30;99.90;;;;;;5100694;28;20043;-86
2022/09/29 10:36:46;;;;;;;0.10;0.10;;;11.20;99.90;;;;;;5111643;22;20059;-78
2022/09/29 10:39:31;;;;;;;0.20;0.20;;;11.10;99.90;;;;;;4989609;28;20052;-76
2022/09/29 10:41:56;;;;;;;0.10;0.10;;;11.20;99.90;;;;;;5023419;28;20022;-76
2022/09/29 10:44:22;;;;;;;0.10;0.10;;;11.30;99.90;;;;;;4978036;28;20065;-78
2022/09/29 10:46:55;;;;;;;0.10;0.10;;;11.40;99.90;;;;;;4996841;28;20057;-78
2022/09/29 10:49:26;;;;;;;0.10;0.10;;;11.40;99.90;;;;;;4993144;28;20030;-78
2022/09/29 10:52:04;;;;;;;0.10;0.10;;;11.40;99.90;;;;;;4993419;28;20031;-77
2022/09/29 10:54:36;;;;;;;0.10;0.10;;;11.10;99.90;;;;;;4957478;28;20484;-78
2022/09/29 10:57:20;;;;;;;0.20;0.20;;;11.20;99.90;;;;;;4973355;28;20018;-78
2022/09/29 10:59:48;;;;;;;0.10;0.10;;;11.30;99.90;;;;;;4987984;28;20595;-78
2022/09/29 11:02:31;;;;;;;0.20;0.20;;;11.30;99.90;;;;;;4970908;28;20022;-78
2022/09/29 11:05:01;;;;;;;0.13;0.13;;;11.30;99.90;;;;;;4970763;28;20033;-78
2022/09/29 11:07:28;;;;;;;0.10;0.10;;;11.40;99.90;;;;;;4970159;28;20057;-78
2022/09/29 11:09:54;;;;;;;0.17;0.17;;;11.40;99.90;;;;;;4990516;28;20050;-77
2022/09/29 11:12:33;;;;;;;0.20;0.20;;;11.40;99.90;;;;;;4955622;28;20084;-78
2022/09/29 11:15:00;;;;;;;0.10;0.10;;;11.40;99.90;;;;;;4968234;28;20033;-78
2022/09/29 11:17:37;;;;;;;0.10;0.10;;;11.40;99.90;;;;;;4971288;28;20335;-77
2022/09/29 11:20:09;;;;;;;0.05;0.05;;;11.30;99.90;;;;;;4969603;28;20026;-75
2022/09/29 11:22:54;;;;;;;0.10;0.10;;;11.30;99.90;;;;;;4987410;28;20041;-74
2022/09/29 11:25:50;;;;;;;0.17;0.17;;;11.30;99.90;;;;;;4986156;28;20034;-74
2022/09/29 11:28:16;;;;;;;0.20;0.20;;;11.30;99.90;;;;;;4950718;28;20057;-74
2022/09/29 11:30:58;;;;;;;0.10;0.10;;;11.30;99.90;;;;;;4949590;28;20513;-73
2022/09/29 11:33:42;;;;;;;0.10;0.10;;;11.40;99.90;;;;;;4974810;28;20096;-75
2022/09/29 11:36:33;;;;;;;0.25;0.25;;;11.50;99.90;;;;;;4956751;28;20041;-74
2022/09/29 11:39:46;;;;;;;0.10;0.10;;;11.60;99.90;;;;;;4973013;28;20037;-74
2022/09/29 11:43:04;;;;;;;0.17;0.17;;;11.50;99.90;;;;;;4957222;28;20458;-75
2022/09/29 11:45:47;;;;;;;0.20;0.20;;;11.60;99.90;;;;;;4939736;28;20120;-74
2022/09/29 11:48:16;;;;;;;3.78;1.23;;;11.70;99.90;;;;;;4990925;28;20026;-74
2022/09/29 11:50:54;;;;;;;6.78;5.18;;;11.50;99.90;;;;;;4991812;28;20096;-74
2022/09/29 11:53:39;;;;;;;0.38;0.35;;;11.50;99.90;;;;;;4958660;28;20812;-73
2022/09/29 11:56:27;;;;;;;0.90;0.47;;;11.40;99.90;;;;;;4972047;28;20036;-74
2022/09/29 11:59:13;;;;;;;0.25;0.25;;;11.30;99.90;;;;;;4971155;28;20034;-74
2022/09/29 12:01:39;;;;;;;0.70;0.30;;;11.40;99.90;;;;;;4975583;28;20085;-74
2022/09/29 12:04:27;;;;;;;0.13;0.13;;;11.50;99.90;;;;;;4989280;28;20454;-72
2022/09/29 12:06:56;;;;;;;0.20;0.20;;;11.50;99.90;;;;;;4955019;28;20027;-74
2022/09/29 12:09:40;;;;;;;0.10;0.10;;;11.50;99.90;;;;;;4971221;28;20030;-74
2022/09/29 12:12:17;;;;;;;0.43;0.43;;;11.50;99.90;;;;;;4972207;28;20591;-73
2022/09/29 12:14:59;;;;;;;0.10;0.10;;;11.60;99.90;;;;;;4988739;28;20026;-75
2022/09/29 12:17:30;;;;;;;0.20;0.20;;;11.60;99.90;;;;;;4991073;28;20029;-73
2022/09/29 12:20:03;;;;;;;0.10;0.10;;;11.50;99.90;;;;;;4989888;28;20035;-75
2022/09/29 12:22:29;;;;;;;0.10;0.10;;;11.50;99.90;;;;;;4990382;28;20045;-75
2022/09/29 12:24:56;;;;;;;0.17;0.17;;;11.50;99.90;;;;;;4990393;28;20041;-73
2022/09/29 12:30:16;;;;;;;0.13;0.13;;;11.50;99.90;;;;;;4998451;28;20416;-76
2022/09/29 12:33:05;;;;;;;0.10;0.10;;;11.30;99.90;;;;;;4999909;28;20025;-80
2022/09/29 12:35:41;;;;;;;0.20;0.20;;;11.10;99.90;;;;;;4992596;28;20030;-78
2022/09/29 12:38:29;;;;;;;0.10;0.10;;;11.20;99.90;;;;;;4978999;28;20129;-78
2022/09/29 12:41:13;;;;;;;0.17;0.17;;;11.20;99.90;;;;;;4994747;28;20097;-82
2022/09/29 12:43:50;;;;;;;0.10;0.10;;;11.20;99.90;;;;;;4980749;28;20042;-78
2022/09/29 12:46:24;;;;;;;0.10;0.10;;;11.40;99.90;;;;;;4978548;28;20081;-81
2022/09/29 12:49:08;;;;;;;0.40;0.40;;;11.30;99.90;;;;;;4978860;28;20053;-79
2022/09/29 12:51:48;;;;;;;0.57;0.57;;;11.30;99.90;;;;;;4979594;28;20030;-77
2022/09/29 12:54:23;;;;;;;0.30;0.30;;;11.30;99.90;;;;;;4977597;28;20537;-77
2022/09/29 12:57:00;;;;;;;0.88;0.55;;;11.30;99.90;;;;;;4982520;28;20111;-79
2022/09/29 12:59:44;;;;;;;0.10;0.10;;;11.30;99.90;;;;;;4966620;28;20034;-81
2022/09/29 13:02:26;;;;;;;0.13;0.13;;;11.30;99.90;;;;;;4998341;28;20435;-83
2022/09/29 13:05:04;;;;;;;0.20;0.20;;;11.20;99.90;;;;;;4998944;28;20580;-79
2022/09/29 13:07:45;;;;;;;3.08;2.88;;;11.20;99.90;;;;;;4982733;28;20466;-81
2022/09/29 13:10:43;;;;;;;3.50;0.67;;;11.20;99.90;;;;;;4981866;28;20027;-81
2022/09/29 13:13:31;;;;;;;1.67;0.88;;;11.20;99.90;;;;;;4997947;28;20405;-81
2022/09/29 13:16:13;;;;;;;0.63;0.63;;;11.00;99.90;;;;;;4983403;28;20042;-82
2022/09/29 13:18:44;;;;;;;0.10;0.10;;;11.00;99.90;;;;;;4984078;28;20532;-79
2022/09/29 13:21:10;;;;;;;;;;;11.00;99.90;;;;;;4982491;28;20038;-81
2022/09/29 13:23:54;;;;;;;10.95;5.93;;;11.00;99.90;;;;;;4981387;28;19916;-80
2022/09/29 13:26:32;;;;;;;3.85;3.47;;;11.00;99.90;;;;;;4980442;28;20034;-80
2022/09/29 13:29:15;;;;;;;2.72;1.00;;;11.00;99.90;;;;;;4980085;28;20050;-80
2022/09/29 13:31:41;;;;;;;3.85;2.60;;;11.00;99.90;;;;;;4979705;28;20488;-80
2022/09/29 13:34:37;;;;;;;0.90;0.90;;;11.00;99.90;;;;;;4982212;28;20030;-80
2022/09/29 13:37:12;;;;;;;0.10;0.10;;;11.00;99.90;;;;;;4979460;28;20043;-81
2022/09/29 13:39:41;;;;;;;0.35;0.35;;;11.10;99.90;;;;;;4975438;28;20038;-82
2022/09/29 13:42:46;;;;;;;0.10;0.10;;;11.20;99.90;;;;;;4980551;28;20034;-79
2022/09/29 13:45:43;;;;;;;0.10;0.10;;;11.30;99.90;;;;;;4981004;28;20042;-79
2022/09/29 13:48:16;;;;;;;0.10;0.10;;;11.40;99.90;;;;;;4983495;28;20046;-80
2022/09/29 13:50:50;;;;;;;0.10;0.10;;;11.40;99.90;;;;;;4981803;28;20528;-79
2022/09/29 13:53:29;;;;;;;0.50;0.50;;;11.40;99.90;;;;;;4982277;28;20026;-79
2022/09/29 13:56:01;;;;;;;0.10;0.10;;;11.30;99.90;;;;;;4997674;28;20482;-80
2022/09/29 13:58:58;;;;;;;3.65;0.75;;;11.30;99.90;;;;;;4981402;28;20049;-78
2022/09/29 14:01:38;;;;;;;0.52;0.52;;;11.20;99.90;;;;;;4979332;28;20525;-78
2022/09/29 14:04:33;;;;;;;0.32;0.32;;;11.10;99.90;;;;;;4984593;28;20126;-79
2022/09/29 14:07:02;;;;;;;2.10;1.90;;;11.20;99.90;;;;;;4975211;28;20053;-80
2022/09/29 14:09:34;;;;;;;0.10;0.10;;;11.10;99.90;;;;;;4983176;28;20030;-79